createdAt,value
2023-02-12T00:01:14.876Z,75.33
2023-02-12T00:06:35.676Z,75.25
2023-02-12T00:11:56.378Z,76.03
2023-02-12T00:17:17.868Z,75.76
2023-02-12T00:22:38.586Z,75.96
2023-02-12T00:27:59.420Z,75.29
2023-02-12T00:33:20.208Z,75.49
2023-02-12T00:38:41.449Z,75.64
2023-02-12T00:44:04.089Z,75.84
2023-02-12T00:49:25.380Z,76.12
2023-02-12T00:54:46.376Z,76.13
2023-02-12T01:00:08.878Z,76.06
2023-02-12T01:05:30.785Z,76.41
2023-02-12T01:10:56.849Z,76.11
2023-02-12T01:16:22.515Z,76.18
2023-02-12T01:21:44.615Z,76.29
2023-02-12T01:27:05.298Z,76.27
2023-02-12T01:32:27.373Z,76.72
2023-02-12T01:37:48.484Z,76.22
2023-02-12T01:43:12.776Z,76.79
2023-02-12T01:48:36.606Z,76.33
2023-02-12T01:53:59.753Z,76.58
2023-02-12T01:59:20.956Z,76.37
2023-02-12T02:04:45.419Z,76.48
2023-02-12T02:10:07.544Z,77.02
2023-02-12T02:15:28.589Z,77.06
2023-02-12T02:21:20.594Z,76.96
2023-02-12T02:27:11.580Z,77.37
2023-02-12T02:32:42.721Z,77.55
2023-02-12T02:38:08.108Z,77.38
2023-02-12T02:43:35.761Z,77.38
2023-02-12T02:49:02.338Z,77.10
2023-02-12T02:54:26.726Z,77.55
2023-02-12T02:59:49.937Z,77.29
2023-02-12T03:05:18.017Z,77.57
2023-02-12T03:10:47.441Z,77.74
2023-02-12T03:16:23.477Z,77.72
2023-02-12T03:21:58.598Z,77.93
2023-02-12T03:27:21.792Z,77.41
2023-02-12T03:33:18.123Z,77.66
2023-02-12T03:38:47.806Z,78.27
2023-02-12T03:44:08.401Z,77.99
2023-02-12T03:49:42.924Z,78.12
2023-02-12T03:55:04.230Z,78.21
2023-02-12T04:00:25.074Z,78.64
2023-02-12T04:05:46.200Z,78.51
2023-02-12T04:11:28.874Z,78.51
2023-02-12T04:17:05.365Z,78.87
2023-02-12T04:22:38.962Z,78.78
2023-02-12T04:28:18.884Z,79.05
2023-02-12T04:33:47.386Z,79.93
2023-02-12T04:39:11.305Z,79.55
2023-02-12T04:44:33.706Z,80.01
2023-02-12T04:49:54.759Z,79.68
2023-02-12T04:55:15.728Z,79.59
2023-02-12T05:00:37.019Z,79.32
2023-02-12T05:06:04.634Z,80.15
2023-02-12T05:11:25.422Z,79.84
2023-02-12T05:16:45.968Z,79.84
2023-02-12T05:22:06.764Z,79.89
2023-02-12T05:27:27.603Z,80.22
2023-02-12T05:32:48.458Z,80.03
2023-02-12T05:38:09.287Z,79.99
2023-02-12T05:43:30.215Z,79.91
2023-02-12T05:48:51.364Z,80.28
2023-02-12T05:54:12.239Z,80.34
2023-02-12T05:59:33.923Z,80.67
2023-02-12T06:04:54.889Z,80.48
2023-02-12T06:10:15.893Z,80.51
2023-02-12T06:15:37.261Z,80.97
2023-02-12T06:20:58.136Z,80.83
2023-02-12T06:26:19.392Z,80.86
2023-02-12T06:31:40.409Z,80.79
2023-02-12T06:37:01.693Z,80.59
2023-02-12T06:42:22.385Z,80.49
2023-02-12T06:47:43.178Z,80.33
2023-02-12T06:53:03.995Z,79.56
2023-02-12T06:58:24.770Z,77.88
2023-02-12T07:03:55.305Z,73.93
2023-02-12T07:09:16.609Z,69.26
2023-02-12T07:14:37.983Z,65.76
2023-02-12T07:19:59.088Z,67.71
2023-02-12T07:25:19.787Z,69.31
2023-02-12T07:30:42.594Z,71.32
2023-02-12T07:36:04.943Z,72.12
2023-02-12T07:41:30.486Z,72.64
2023-02-12T07:46:51.511Z,73.11
2023-02-12T07:52:13.563Z,73.49
2023-02-12T07:57:35.556Z,74.18
2023-02-12T08:02:56.580Z,74.60
2023-02-12T08:08:17.318Z,74.24
2023-02-12T08:13:38.321Z,74.22
2023-02-12T08:19:14.357Z,74.31
2023-02-12T08:24:38.196Z,74.06
2023-02-12T08:29:58.941Z,74.21
2023-02-12T08:35:19.763Z,74.00
2023-02-12T08:40:40.786Z,73.83
2023-02-12T08:46:11.715Z,73.83
2023-02-12T08:51:34.546Z,74.06
2023-02-12T08:56:59.676Z,73.76
2023-02-12T09:02:20.778Z,73.69
2023-02-12T09:07:41.456Z,73.68
2023-02-12T09:13:02.335Z,73.47
2023-02-12T09:18:23.367Z,73.06
2023-02-12T09:23:44.379Z,72.54
2023-02-12T09:29:05.393Z,72.30
2023-02-12T09:34:26.064Z,72.24
2023-02-12T09:39:47.761Z,72.17
2023-02-12T09:45:17.967Z,71.72
2023-02-12T09:50:43.416Z,71.21
2023-02-12T09:56:09.695Z,70.66
2023-02-12T10:01:30.793Z,70.17
2023-02-12T10:06:59.636Z,70.61
2023-02-12T10:12:26.334Z,70.46
2023-02-12T10:18:04.611Z,70.50
2023-02-12T10:23:31.438Z,70.27
2023-02-12T10:28:52.566Z,70.05
2023-02-12T10:34:19.729Z,70.13
2023-02-12T10:39:49.178Z,70.02
2023-02-12T10:45:18.441Z,68.64
2023-02-12T10:51:04.561Z,68.88
2023-02-12T10:56:25.717Z,68.64
2023-02-12T11:01:47.011Z,68.10
2023-02-12T11:07:09.001Z,68.00
2023-02-12T11:12:37.644Z,66.76
2023-02-12T11:18:05.132Z,66.70
2023-02-12T11:23:29.705Z,64.73
2023-02-12T11:28:55.208Z,64.73
2023-02-12T11:34:16.978Z,64.02
2023-02-12T11:39:40.076Z,63.58
2023-02-12T11:45:00.911Z,62.88
2023-02-12T11:50:31.696Z,60.67
2023-02-12T11:55:57.851Z,62.66
2023-02-12T12:01:29.698Z,62.47
2023-02-12T12:06:58.196Z,61.87
2023-02-12T12:12:22.857Z,62.43
2023-02-12T12:18:20.900Z,61.56
2023-02-12T12:23:50.020Z,60.47
2023-02-12T12:29:18.366Z,60.53
2023-02-12T12:34:39.510Z,59.90
2023-02-12T12:40:12.460Z,59.53
2023-02-12T12:45:55.150Z,59.15
2023-02-12T12:51:26.392Z,59.81
2023-02-12T12:56:56.802Z,59.21
2023-02-12T13:02:45.769Z,57.85
2023-02-12T13:08:23.468Z,58.49
2023-02-12T13:13:46.290Z,59.28
2023-02-12T13:19:16.137Z,59.17
2023-02-12T13:24:48.208Z,58.74
2023-02-12T13:30:18.092Z,58.58
2023-02-12T13:35:42.424Z,58.92
2023-02-12T13:41:07.868Z,58.89
2023-02-12T13:46:44.932Z,58.20
2023-02-12T13:52:20.317Z,58.71
2023-02-12T13:57:41.573Z,58.61
2023-02-12T14:03:08.689Z,58.61
2023-02-12T14:08:54.622Z,58.79
2023-02-12T14:14:35.774Z,58.22
2023-02-12T14:20:05.750Z,58.54
2023-02-12T14:25:35.743Z,58.47
2023-02-12T14:31:18.793Z,58.09
2023-02-12T14:36:43.940Z,58.34
2023-02-12T14:42:30.913Z,57.84
2023-02-12T14:47:52.297Z,57.80
2023-02-12T14:53:32.106Z,57.56
2023-02-12T14:58:53.825Z,57.95
2023-02-12T15:04:23.946Z,58.41
2023-02-12T15:09:48.301Z,58.79
2023-02-12T15:15:28.139Z,59.10
2023-02-12T15:20:56.851Z,59.24
2023-02-12T15:26:20.814Z,59.18
2023-02-12T15:31:42.056Z,59.50
2023-02-12T15:37:04.130Z,59.81
2023-02-12T15:42:37.910Z,60.43
2023-02-12T15:48:18.046Z,60.45
2023-02-12T15:53:39.215Z,60.53
2023-02-12T15:59:01.273Z,60.61
2023-02-12T16:04:22.028Z,60.79
2023-02-12T16:09:42.845Z,61.19
2023-02-12T16:15:03.985Z,61.33
2023-02-12T16:20:27.256Z,61.60
2023-02-12T16:25:54.220Z,62.18
2023-02-12T16:31:16.437Z,61.71
2023-02-12T16:36:37.572Z,62.18
2023-02-12T16:41:58.677Z,62.17
2023-02-12T16:47:20.753Z,62.43
2023-02-12T16:52:41.814Z,62.82
2023-02-12T16:58:02.731Z,62.60
2023-02-12T17:03:24.887Z,62.77
2023-02-12T17:08:45.974Z,63.24
2023-02-12T17:14:06.811Z,63.55
2023-02-12T17:19:27.935Z,63.81
2023-02-12T17:24:52.035Z,63.70
2023-02-12T17:30:17.532Z,63.77
2023-02-12T17:35:38.986Z,64.02
2023-02-12T17:41:00.044Z,64.38
2023-02-12T17:46:22.667Z,64.68
2023-02-12T17:51:43.650Z,64.78
2023-02-12T17:57:05.063Z,64.73
2023-02-12T18:02:26.416Z,64.82
2023-02-12T18:07:47.461Z,65.09
2023-02-12T18:13:08.608Z,65.10
2023-02-12T18:18:29.608Z,65.60
2023-02-12T18:23:50.728Z,65.81
2023-02-12T18:29:11.906Z,65.71
2023-02-12T18:34:33.079Z,65.81
2023-02-12T18:39:54.342Z,66.31
2023-02-12T18:45:15.688Z,65.95
2023-02-12T18:50:37.026Z,66.59
2023-02-12T18:55:58.555Z,66.59
2023-02-12T19:01:20.161Z,66.71
2023-02-12T19:06:42.681Z,66.71
2023-02-12T19:12:03.989Z,66.73
2023-02-12T19:17:25.260Z,67.08
2023-02-12T19:22:46.547Z,67.21
2023-02-12T19:28:11.068Z,67.02
2023-02-12T19:33:32.237Z,67.69
2023-02-12T19:38:52.950Z,67.66
2023-02-12T19:44:17.916Z,67.42
2023-02-12T19:49:39.400Z,67.55
2023-02-12T19:55:00.186Z,68.07
2023-02-12T20:00:21.048Z,67.87
2023-02-12T20:05:46.592Z,67.76
2023-02-12T20:11:08.237Z,68.06
2023-02-12T20:16:34.291Z,68.19
2023-02-12T20:21:57.682Z,68.18
2023-02-12T20:27:18.456Z,68.26
2023-02-12T20:32:44.561Z,68.25
2023-02-12T20:38:05.857Z,68.62
2023-02-12T20:43:28.842Z,68.79
2023-02-12T20:48:50.049Z,68.98
2023-02-12T20:54:11.153Z,68.89
2023-02-12T20:59:32.652Z,68.87
2023-02-12T21:04:53.669Z,69.23
2023-02-12T21:10:14.717Z,68.86
2023-02-12T21:15:35.926Z,69.34
2023-02-12T21:21:21.162Z,69.43
2023-02-12T21:26:41.863Z,69.85
2023-02-12T21:32:03.209Z,69.39
2023-02-12T21:37:27.778Z,69.54
2023-02-12T21:42:48.704Z,69.85
2023-02-12T21:48:09.816Z,69.74
2023-02-12T21:53:30.537Z,69.98
2023-02-12T21:58:52.664Z,69.93
2023-02-12T22:04:14.345Z,69.68
2023-02-12T22:09:35.297Z,69.71
2023-02-12T22:14:55.992Z,69.85
2023-02-12T22:20:16.860Z,70.28
2023-02-12T22:25:37.934Z,69.97
2023-02-12T22:30:59.305Z,70.28
2023-02-12T22:36:22.151Z,70.33
2023-02-12T22:41:43.268Z,70.32
2023-02-12T22:47:04.585Z,70.54
2023-02-12T22:52:25.378Z,70.60
2023-02-12T22:57:46.109Z,70.83
2023-02-12T23:03:06.787Z,71.03
2023-02-12T23:08:27.574Z,70.97
2023-02-12T23:13:48.462Z,71.07
2023-02-12T23:19:09.559Z,71.66
2023-02-12T23:24:30.890Z,71.72
2023-02-12T23:29:52.022Z,72.00
2023-02-12T23:35:12.884Z,72.13
2023-02-12T23:40:34.092Z,72.50
2023-02-12T23:45:55.305Z,72.60
2023-02-12T23:51:16.008Z,72.78
2023-02-12T23:56:36.991Z,72.80
